Latest Weather Observations for Ernabella/Pukatja

IDS60801

Issued at 4:31 am CST Thursday 20 September 2018 (issued every 10 minutes, with the page automatically refreshed every 10 minutes)

About weather observations | Map of weather stations | Latest weather observations for SA | Other Formats
Station Details ID: 016097 Name: PUKATJA Lat: -26.26 Lon: 132.18 Height: 703.2 m
Data from the previous 72 hours. | See also: Recent months at Ernabella/Pukatja
Date/Time
CST
Temp
°C
App
Temp
°C
Dew
Point
°C
Rel
Hum
%
Delta-T
°C
Wind Press
QNH
hPa
Press
MSL
hPa
Rain since
9am
mm
Dir  Spd
km/h
Gust
km/h
Spd
kts
Gust
kts
20/04:30am 10.9 5.8 0.6 49 4.4 SE 17 24 9 13 1023.5 1021.0 0.0
20/04:00am 11.2 6.5 0.6 48 4.6 SE 15 20 8 11 1023.5 1021.0 0.0
20/03:30am 11.5 6.8 0.6 47 4.7 SE 15 20 8 11 1023.3 1020.8 0.0
20/03:00am 11.1 7.3 -0.4 45 4.8 SSE 9 15 5 8 1023.1 1020.6 0.0
20/02:30am 10.8 7.0 -0.9 44 4.8 SE 9 15 5 8 1023.4 1020.9 0.0
20/02:00am 11.3 7.0 -1.5 41 5.3 SSE 11 17 6 9 1023.3 1020.8 0.0
20/01:30am 11.4 7.5 -1.4 41 5.3 SSE 9 15 5 8 1023.5 1021.0 0.0
20/01:00am 11.8 7.5 -1.7 39 5.6 SE 11 15 6 8 1023.8 1021.3 0.0
20/12:30am 12.4 7.3 -1.9 37 5.9 SE 15 20 8 11 1024.1 1021.7 0.0
20/12:00am 11.9 7.1 -2.3 37 5.7 SSE 13 17 7 9 1024.3 1021.9 0.0
 
Date/Time
CST
Temp
°C
App
Temp
°C
Dew
Point
°C
Rel
Hum
%
Delta-T
°C
Wind Press
QNH
hPa
Press
MSL
hPa
Rain since
9am
mm
Dir  Spd
km/h
Gust
km/h
Spd
kts
Gust
kts
19/11:30pm 12.4 8.0 -2.2 36 5.9 SE 11 17 6 9 1024.4 1022.0 0.0
19/11:00pm 12.7 8.7 -2.3 35 6.1 SE 9 15 5 8 1024.7 1022.2 0.0
19/10:30pm 13.0 8.5 -2.9 33 6.4 SE 11 17 6 9 1024.7 1022.2 0.0
19/10:00pm 13.7 8.8 -3.1 31 6.8 SE 13 17 7 9 1024.7 1022.2 0.0
19/09:30pm 14.1 9.2 -3.6 29 7.1 SE 13 20 7 11 1024.6 1022.1 0.0
19/09:00pm 14.8 9.8 -4.0 27 7.5 SE 13 20 7 11 1024.2 1021.8 0.0
19/08:30pm 14.6 9.9 -4.7 26 7.6 SE 11 15 6 8 1023.9 1021.4 0.0
19/08:00pm 14.9 10.2 -5.5 24 8.0 SE 11 15 6 8 1023.5 1021.0 0.0
19/07:30pm 15.9 10.7 -6.4 21 8.6 SE 13 20 7 11 1023.1 1020.6 0.0
19/07:00pm 16.5 11.3 -6.5 20 8.9 SE 13 20 7 11 1022.7 1020.3 0.0
19/06:30pm 16.9 10.8 -8.3 17 9.4 ESE 17 22 9 12 1022.1 1019.6 0.0
19/06:00pm 17.9 11.2 -9.9 14 10.2 SE 19 26 10 14 1021.8 1019.3 0.0
19/05:30pm 18.8 12.4 -11.2 12 10.8 SE 17 26 9 14 1021.7 1019.2 0.0
19/05:00pm 19.1 12.6 -13.2 10 11.3 S 17 26 9 14 1021.5 1018.9 0.0
19/04:30pm 19.8 14.0 -13.9 9 11.7 SSE 13 32 7 17 1021.3 1018.8 0.0
19/04:00pm 19.3 13.5 -14.3 9 11.5 SSE 13 20 7 11 1021.3 1018.8 0.0
19/03:30pm 18.8 12.3 -13.4 10 11.1 SSE 17 26 9 14 1021.6 1019.1 0.0
19/03:00pm 19.4 12.7 -10.7 12 11.0 S 19 26 10 14 1021.7 1019.2 0.0
19/02:30pm 18.5 13.3 -10.4 13 10.6 S 11 24 6 13 1022.2 1019.7 0.0
19/02:00pm 18.2 11.8 -11.6 12 10.6 S 17 26 9 14 1022.4 1019.9 0.0
19/01:30pm 17.5 10.7 -12.2 12 10.3 SE 19 26 10 14 1022.7 1020.3 0.0
19/01:00pm 17.3 10.4 -11.3 13 10.1 SSE 20 30 11 16 1023.2 1020.7 0.0
19/12:30pm 17.4 11.2 -9.5 15 9.9 S 17 28 9 15 1023.7 1021.2 0.0
19/12:00pm 16.3 9.0 -10.3 15 9.5 S 22 33 12 18 1024.0 1021.6 0.0
19/11:30am 15.2 8.1 -8.2 19 8.6 SSE 22 32 12 17 1024.4 1022.0 0.0
19/11:00am 14.7 8.1 -7.4 21 8.3 SSE 20 30 11 16 1024.8 1022.3 0.0
19/10:30am 13.1 6.5 -7.0 24 7.4 S 20 30 11 16 1025.0 1022.5 0.0
19/10:00am 12.4 5.9 -5.6 28 6.8 SSW 20 30 11 16 1025.2 1022.7 0.0
19/09:30am 11.6 5.2 -4.5 32 6.2 S 20 33 11 18 1025.2 1022.7 0.0
19/09:00am 10.6 4.5 -2.1 41 5.1 S 20 32 11 17 1024.9 1022.4 0.0
19/08:30am 9.5 3.2 -0.9 48 4.2 S 22 32 12 17 1024.6 1022.1 0.0
19/08:00am 8.6 2.0 -0.4 53 3.7 S 24 32 13 17 1024.0 1021.6 0.0
19/07:30am 8.0 2.2 0.0 57 3.3 S 20 30 11 16 1023.7 1021.2 0.0
19/07:00am 7.4 1.7 0.4 61 2.9 SSE 20 30 11 16 1023.4 1020.9 0.0
19/06:30am 7.3 1.6 0.5 62 2.8 SSE 20 30 11 16 1022.8 1020.4 0.0
19/06:00am 7.5 1.4 0.5 61 2.9 SSE 22 32 12 17 1022.4 1019.9 0.0
19/05:30am 7.9 1.1 0.6 60 3.0 SSE 26 33 14 18 1021.9 1019.4 0.0
19/05:00am 8.3 1.1 0.5 58 3.3 SSE 28 35 15 19 1022.0 1019.5 0.0
19/04:30am 8.9 1.7 0.9 57 3.4 SSE 28 35 15 19 1021.7 1019.2 0.0
19/04:00am 9.3 2.1 0.7 55 3.6 SSE 28 39 15 21 1021.3 1018.8 0.0
19/03:30am 9.9 3.1 0.5 52 4.0 SSE 26 39 14 21 1021.2 1018.7 0.0
19/03:00am 10.5 2.5 0.5 50 4.3 SSE 32 43 17 23 1020.8 1018.3 0.0
19/02:30am 11.3 3.1 0.4 47 4.7 SSE 33 46 18 25 1020.7 1018.2 0.0
19/02:20am 11.6 3.6 0.4 46 4.8 SSE 32 46 17 25 1020.5 1018.0 0.0
19/02:00am 12.1 6.3 0.2 44 5.1 S 20 28 11 15 1020.8 1018.3 0.0
19/01:30am 12.9 6.1 0.6 43 5.4 S 26 37 14 20 1021.0 1018.5 0.0
19/01:00am 13.2 6.8 0.9 43 5.4 SSE 24 32 13 17 1021.1 1018.6 0.0
19/12:30am 13.3 6.5 0.7 42 5.5 SSE 26 35 14 19 1020.9 1018.4 0.0
19/12:00am 13.7 6.2 1.0 42 5.6 SSE 30 41 16 22 1021.1 1018.6 0.0
 
Date/Time
CST
Temp
°C
App
Temp
°C
Dew
Point
°C
Rel
Hum
%
Delta-T
°C
Wind Press
QNH
hPa
Press
MSL
hPa
Rain since
9am
mm
Dir  Spd
km/h
Gust
km/h
Spd
kts
Gust
kts
18/11:30pm 13.9 6.4 1.2 42 5.7 SSE 30 43 16 23 1020.9 1018.4 0.0
18/11:00pm 14.4 6.9 1.3 41 5.9 S 30 43 16 23 1021.3 1018.8 0.0
18/10:30pm 14.8 6.8 0.6 38 6.3 SSW 32 52 17 28 1020.7 1018.2 0.0
18/10:17pm 15.1 6.2 0.5 37 6.5 SSW 37 56 20 30 1020.7 1018.2 0.0
18/10:00pm 15.2 6.6 -0.1 35 6.7 S 35 48 19 26 1020.3 1017.8 0.0
18/09:30pm 16.1 9.3 -1.5 30 7.6 SSW 24 41 13 22 1020.8 1018.3 0.0
18/09:00pm 16.4 9.6 -2.1 28 7.9 SSW 24 39 13 21 1020.6 1018.1 0.0
18/08:30pm 16.4 9.6 -2.1 28 7.9 S 24 33 13 18 1019.8 1017.3 0.0
18/08:00pm 16.3 9.1 -2.2 28 7.9 SSW 26 43 14 23 1019.5 1017.0 0.0
18/07:30pm 16.2 9.3 -2.3 28 7.8 SSW 24 35 13 19 1020.0 1017.4 0.0
18/07:00pm 16.3 10.3 -1.3 30 7.6 S 20 32 11 17 1018.6 1016.0 0.0
18/06:30pm 16.8 8.9 -1.3 29 7.9 SSW 30 44 16 24 1018.3 1015.8 0.0
18/06:00pm 17.5 11.2 -0.7 29 8.1 SSW 22 32 12 17 1018.2 1015.7 0.0
18/05:30pm 18.2 12.0 -0.6 28 8.4 SSW 22 33 12 18 1017.6 1015.0 0.0
18/05:19pm 18.3 10.9 -0.5 28 8.4 SSW 28 46 15 25 1017.6 1015.0 0.0
18/05:00pm 19.1 12.2 0.2 28 8.6 S 26 39 14 21 1017.1 1014.5 0.0
18/04:30pm 20.4 14.0 0.8 27 9.2 S 24 41 13 22 1016.8 1014.3 0.0
18/04:00pm 20.2 12.8 1.6 29 8.8 SW 30 41 16 22 1017.4 1014.8 0.0
18/03:30pm 21.1 14.9 2.4 29 9.1 SW 24 39 13 21 1017.2 1014.6 0.0
18/03:00pm 20.5 13.9 1.9 29 8.9 SW 26 37 14 20 1017.1 1014.5 0.0
18/02:30pm 20.2 14.1 2.5 31 8.5 SW 24 35 13 19 1017.3 1014.7 0.0
18/02:00pm 19.9 13.8 2.7 32 8.3 SSW 24 37 13 20 1017.2 1014.6 0.0
18/01:30pm 20.4 15.0 2.7 31 8.6 SSW 20 30 11 16 1017.2 1014.6 0.0
18/01:00pm 19.0 12.5 2.8 34 7.8 SW 26 35 14 19 1017.6 1015.0 0.0
18/12:30pm 18.7 12.6 2.9 35 7.6 SSW 24 35 13 19 1017.8 1015.3 0.0
18/12:00pm 17.6 11.4 4.2 41 6.6 SW 26 37 14 20 1018.0 1015.5 0.0
18/11:30am 16.2 10.4 4.6 46 5.7 SSW 24 33 13 18 1018.5 1015.9 0.0
18/11:00am 15.4 8.5 4.8 49 5.2 SW 30 43 16 23 1018.6 1016.0 0.0
18/10:44am 14.7 8.3 5.2 53 4.7 SSW 28 50 15 27 1018.7 1016.1 0.0
18/10:30am 15.1 8.8 5.9 54 4.6 SSW 28 43 15 23 1018.7 1016.1 0.0
18/10:14am 13.6 6.5 5.5 58 4.0 SW 32 50 17 27 1019.0 1016.5 0.0
18/10:00am 13.5 6.5 5.9 60 3.7 SSW 32 39 17 21 1018.9 1016.3 0.0
18/09:30am 12.8 5.7 5.7 62 3.5 SSW 32 46 17 25 1018.9 1016.3 0.0
18/09:00am 11.9 4.9 6.0 67 2.9 SSW 32 44 17 24 1018.8 1016.2 0.0
18/08:30am 11.2 4.2 5.9 70 2.6 SSW 32 44 17 24 1018.7 1016.1 0.0
18/08:00am 10.1 4.6 6.1 76 1.9 SW 24 35 13 19 1018.3 1015.8 0.0
18/07:30am 10.1 2.6 6.3 77 1.8 SW 35 50 19 27 1017.8 1015.3 0.0
18/07:18am 10.3 3.1 6.1 75 2.0 SW 33 54 18 29 1017.4 1014.8 0.0
18/07:00am 9.9 2.4 6.1 77 1.8 SW 35 48 19 26 1017.3 1014.7 0.0
18/06:42am 9.8 2.3 6.2 78 1.7 SW 35 54 19 29 1016.8 1014.3 0.0
18/06:30am 10.0 2.4 6.0 76 1.9 SW 35 52 19 28 1016.4 1013.8 0.0
18/06:00am 10.7 2.9 4.8 67 2.8 SW 35 43 19 23 1016.0 1013.4 0.0
18/05:30am 11.8 3.5 2.3 52 4.3 SW 35 46 19 25 1015.4 1012.8 0.0
18/05:00am 13.0 3.4 -1.3 37 6.0 WSW 39 50 21 27 1014.5 1011.9 0.0
18/04:43am 14.8 5.5 -5.5 24 7.9 SW 35 56 19 30 1014.3 1011.7 0.0
18/04:30am 17.9 11.2 -9.9 14 10.2 SW 19 35 10 19 1014.0 1011.4 0.0
18/04:23am 17.3 11.4 -9.5 15 9.9 SSE 15 35 8 19 1013.9 1011.2 0.0
18/04:00am 16.0 11.6 -10.6 15 9.4 NE 7 11 4 6 1012.8 1010.2 0.0
18/03:30am 17.1 11.9 -10.6 14 10.0 NE 11 15 6 8 1012.9 1010.3 0.0
18/03:00am 18.3 13.2 -9.6 14 10.4 NNE 11 24 6 13 1013.0 1010.4 0.0
18/02:30am 18.2 11.9 -10.6 13 10.5 NE 17 32 9 17 1013.2 1010.6 0.0
18/02:00am 16.0 10.2 -9.0 17 9.2 E 15 19 8 10 1013.6 1011.0 0.0
18/01:30am 17.7 12.6 -9.2 15 10.0 ENE 11 15 6 8 1014.1 1011.5 0.0
18/01:00am 18.1 13.5 -8.1 16 10.0 NE 9 17 5 9 1014.5 1011.9 0.0
18/12:30am 19.6 12.5 -8.6 14 10.9 N 22 32 12 17 1014.8 1012.2 0.0
18/12:00am 19.0 13.7 -7.4 16 10.3 NNE 13 20 7 11 1014.9 1012.3 0.0
 
Date/Time
CST
Temp
°C
App
Temp
°C
Dew
Point
°C
Rel
Hum
%
Delta-T
°C
Wind Press
QNH
hPa
Press
MSL
hPa
Rain since
9am
mm
Dir  Spd
km/h
Gust
km/h
Spd
kts
Gust
kts
17/11:30pm 18.7 13.4 -6.8 17 10.1 NNE 13 19 7 10 1015.0 1012.4 0.0
17/11:00pm 19.8 14.2 -5.9 17 10.5 N 15 26 8 14 1015.6 1013.0 0.0
17/10:30pm 15.9 11.9 -5.8 22 8.5 NNE 7 13 4 7 1015.2 1012.7 0.0
17/10:00pm 15.2 12.5 -5.8 23 8.2 CALM 0 0 0 0 1015.1 1012.5 0.0
17/09:30pm 16.4 13.7 -6.0 21 8.8 CALM 0 0 0 0 1015.2 1012.7 0.0
17/09:00pm 17.1 14.5 -5.4 21 9.0 CALM 0 6 0 3 1015.0 1012.4 0.0
17/08:30pm 18.0 14.0 -5.9 19 9.6 N 7 9 4 5 1014.9 1012.3 0.0
17/08:00pm 19.0 14.1 -6.6 17 10.2 N 11 13 6 7 1014.7 1012.1 0.0
17/07:30pm 20.6 16.2 -6.1 16 10.9 N 9 13 5 7 1014.5 1011.9 0.0
17/07:00pm 22.8 17.9 -7.0 13 12.2 NNW 11 15 6 8 1014.4 1011.8 0.0
17/06:30pm 24.8 19.1 -7.6 11 13.4 NW 15 20 8 11 1014.2 1011.6 0.0
17/06:00pm 26.2 19.5 -7.8 10 14.2 WNW 20 33 11 18 1014.2 1011.6 0.0
17/05:30pm 26.8 19.4 -7.3 10 14.4 NW 24 35 13 19 1014.0 1011.4 0.0
17/05:00pm 27.5 20.9 -6.8 10 14.8 WNW 20 33 11 18 1014.0 1011.4 0.0
17/04:30pm 27.1 20.1 -7.1 10 14.6 NW 22 35 12 19 1013.9 1011.2 0.0
17/04:00pm 27.4 20.4 -6.9 10 14.7 NW 22 52 12 28 1014.0 1011.4 0.0
17/03:30pm 27.4 21.4 -6.9 10 14.7 NW 17 33 9 18 1014.4 1011.8 0.0
17/03:00pm 26.8 20.9 -6.1 11 14.2 NW 17 28 9 15 1014.6 1012.0 0.0
17/02:30pm 26.8 20.7 -7.3 10 14.4 NW 17 32 9 17 1015.0 1012.4 0.0
17/02:00pm 26.2 19.5 -7.8 10 14.2 NNW 20 35 11 19 1015.1 1012.5 0.0
17/01:30pm 25.5 18.9 -7.1 11 13.7 NNW 20 32 11 17 1015.8 1013.2 0.0
17/01:00pm 24.7 17.4 -6.6 12 13.2 NNW 24 33 13 18 1016.4 1013.8 0.0
17/12:30pm 22.9 15.9 -6.9 13 12.3 N 22 33 12 18 1017.2 1014.6 0.0
17/12:00pm 22.5 15.9 -7.3 13 12.1 NNW 20 32 11 17 1017.8 1015.3 0.0
17/11:30am 20.9 14.3 -6.7 15 11.2 NE 20 28 11 15 1018.5 1015.9 0.0
17/11:00am 19.3 12.8 -6.3 17 10.3 NNE 20 30 11 16 1019.0 1016.5 0.0
17/10:30am 17.9 11.4 -6.0 19 9.5 NNE 20 28 11 15 1019.4 1016.9 0.0
17/10:00am 15.9 9.6 -5.8 22 8.5 NNE 19 28 10 15 1020.0 1017.4 0.0
17/09:30am 15.0 9.1 -5.4 24 8.0 NNE 17 28 9 15 1020.4 1017.9 0.0
17/09:00am 13.6 7.1 -5.5 26 7.3 NNE 20 32 11 17 1020.5 1018.0 0.0
17/08:30am 12.7 6.8 -5.3 28 6.9 NNE 17 28 9 15 1020.7 1018.2 0.0
17/08:00am 11.6 5.7 -5.8 29 6.5 NNE 17 28 9 15 1020.5 1018.0 0.0
17/07:30am 10.3 5.5 -6.1 31 6.0 NNE 11 20 6 11 1020.6 1018.1 0.0
17/07:00am 9.1 3.5 -5.9 34 5.4 NNE 15 22 8 12 1020.2 1017.6 0.0
17/06:30am 8.8 3.6 -6.2 34 5.4 NNE 13 20 7 11 1019.8 1017.3 0.0
17/06:00am 9.2 2.9 -6.2 33 5.5 NNE 19 26 10 14 1019.5 1017.0 0.0
17/05:30am 9.5 3.0 -5.9 33 5.6 NNE 20 32 11 17 1019.5 1017.0 0.0
17/05:00am 8.8 3.6 -6.2 34 5.4 N 13 20 7 11 1019.3 1016.8 0.0

Other Formats:

Comma delimited format used in spreadsheet applications
http://www.bom.gov.au/fwo/IDS60801/IDS60801.94474.axf

JavaScript Object Notation format (JSON) in row-major order
http://www.bom.gov.au/fwo/IDS60801/IDS60801.94474.json